sensor_id;sensor_type;location;lat;lon;timestamp;pressure;altitude;pressure_sealevel;temperature;humidity
55733;BME280;41637;52.364;9.910;2022-12-20T00:01:43;100860.43;;;6.61;84.29
55733;BME280;41637;52.364;9.910;2022-12-20T00:04:10;100860.52;;;6.58;84.58
55733;BME280;41637;52.364;9.910;2022-12-20T00:06:37;100862.72;;;6.55;84.64
55733;BME280;41637;52.364;9.910;2022-12-20T00:09:06;100860.20;;;6.54;84.75
55733;BME280;41637;52.364;9.910;2022-12-20T00:11:34;100855.45;;;6.51;84.97
55733;BME280;41637;52.364;9.910;2022-12-20T00:14:03;100856.96;;;6.49;85.22
55733;BME280;41637;52.364;9.910;2022-12-20T00:16:29;100852.00;;;6.47;84.90
55733;BME280;41637;52.364;9.910;2022-12-20T00:18:59;100855.77;;;6.46;85.52
55733;BME280;41637;52.364;9.910;2022-12-20T00:21:28;100858.88;;;6.43;85.53
55733;BME280;41637;52.364;9.910;2022-12-20T00:23:55;100867.86;;;6.41;85.69
55733;BME280;41637;52.364;9.910;2022-12-20T00:26:25;100865.81;;;6.41;86.00
55733;BME280;41637;52.364;9.910;2022-12-20T00:28:52;100853.75;;;6.40;85.85
55733;BME280;41637;52.364;9.910;2022-12-20T00:31:20;100851.73;;;6.39;86.11
55733;BME280;41637;52.364;9.910;2022-12-20T00:33:48;100851.86;;;6.38;86.12
55733;BME280;41637;52.364;9.910;2022-12-20T00:36:16;100845.93;;;6.35;86.45
55733;BME280;41637;52.364;9.910;2022-12-20T00:38:45;100842.80;;;6.35;86.67
55733;BME280;41637;52.364;9.910;2022-12-20T00:41:14;100842.02;;;6.36;87.05
55733;BME280;41637;52.364;9.910;2022-12-20T00:43:41;100838.54;;;6.35;86.93
55733;BME280;41637;52.364;9.910;2022-12-20T00:46:09;100834.42;;;6.34;87.22
55733;BME280;41637;52.364;9.910;2022-12-20T00:48:37;100832.23;;;6.35;87.39
55733;BME280;41637;52.364;9.910;2022-12-20T00:51:06;100831.91;;;6.35;87.19
55733;BME280;41637;52.364;9.910;2022-12-20T00:53:34;100831.08;;;6.36;87.60
55733;BME280;41637;52.364;9.910;2022-12-20T00:56:01;100825.79;;;6.38;88.02
55733;BME280;41637;52.364;9.910;2022-12-20T00:58:27;100818.83;;;6.40;87.83
55733;BME280;41637;52.364;9.910;2022-12-20T01:00:54;100829.75;;;6.41;88.01
55733;BME280;41637;52.364;9.910;2022-12-20T01:03:23;100826.44;;;6.42;88.28
55733;BME280;41637;52.364;9.910;2022-12-20T01:05:50;100823.63;;;6.46;88.25
55733;BME280;41637;52.364;9.910;2022-12-20T01:08:18;100816.67;;;6.49;88.32
55733;BME280;41637;52.364;9.910;2022-12-20T01:10:45;100815.17;;;6.52;88.42
55733;BME280;41637;52.364;9.910;2022-12-20T01:13:12;100825.80;;;6.53;88.32
55733;BME280;41637;52.364;9.910;2022-12-20T01:15:39;100822.55;;;6.56;88.21
55733;BME280;41637;52.364;9.910;2022-12-20T01:18:05;100826.67;;;6.59;88.28
55733;BME280;41637;52.364;9.910;2022-12-20T01:20:32;100828.30;;;6.62;88.20
55733;BME280;41637;52.364;9.910;2022-12-20T01:22:58;100832.28;;;6.66;88.38
55733;BME280;41637;52.364;9.910;2022-12-20T01:25:24;100835.40;;;6.71;88.14
55733;BME280;41637;52.364;9.910;2022-12-20T01:27:51;100824.27;;;6.75;87.89
55733;BME280;41637;52.364;9.910;2022-12-20T01:30:17;100828.67;;;6.77;87.75
55733;BME280;41637;52.364;9.910;2022-12-20T01:32:44;100820.86;;;6.79;87.67
55733;BME280;41637;52.364;9.910;2022-12-20T01:35:10;100819.20;;;6.78;87.70
55733;BME280;41637;52.364;9.910;2022-12-20T01:37:37;100818.42;;;6.79;88.12
55733;BME280;41637;52.364;9.910;2022-12-20T01:40:04;100816.38;;;6.80;87.61
55733;BME280;41637;52.364;9.910;2022-12-20T01:42:30;100825.45;;;6.83;87.71
55733;BME280;41637;52.364;9.910;2022-12-20T01:44:58;100824.84;;;6.84;87.70
55733;BME280;41637;52.364;9.910;2022-12-20T01:47:25;100812.65;;;6.84;87.67
55733;BME280;41637;52.364;9.910;2022-12-20T01:49:55;100806.78;;;6.87;87.42
55733;BME280;41637;52.364;9.910;2022-12-20T01:52:31;100803.60;;;6.89;87.61
55733;BME280;41637;52.364;9.910;2022-12-20T01:55:09;100802.69;;;6.90;87.44
55733;BME280;41637;52.364;9.910;2022-12-20T02:00:11;100801.27;;;6.95;87.40
55733;BME280;41637;52.364;9.910;2022-12-20T02:02:39;100794.35;;;6.96;87.18
55733;BME280;41637;52.364;9.910;2022-12-20T02:05:06;100793.14;;;6.97;87.41
55733;BME280;41637;52.364;9.910;2022-12-20T02:07:35;100791.92;;;6.97;87.49
55733;BME280;41637;52.364;9.910;2022-12-20T02:10:03;100789.23;;;6.99;87.67
55733;BME280;41637;52.364;9.910;2022-12-20T02:12:38;100788.07;;;7.02;87.20
55733;BME280;41637;52.364;9.910;2022-12-20T02:29:24;100786.53;;;7.23;87.17
55733;BME280;41637;52.364;9.910;2022-12-20T02:34:35;100779.94;;;7.31;87.45
55733;BME280;41637;52.364;9.910;2022-12-20T02:37:02;100781.70;;;7.36;87.44
55733;BME280;41637;52.364;9.910;2022-12-20T02:39:30;100773.32;;;7.40;87.38
55733;BME280;41637;52.364;9.910;2022-12-20T02:42:00;100772.33;;;7.43;87.12
55733;BME280;41637;52.364;9.910;2022-12-20T02:44:29;100759.23;;;7.43;87.01
55733;BME280;41637;52.364;9.910;2022-12-20T02:47:30;100765.63;;;7.41;86.77
55733;BME280;41637;52.364;9.910;2022-12-20T02:49:59;100774.86;;;7.40;87.32
55733;BME280;41637;52.364;9.910;2022-12-20T02:52:29;100778.42;;;7.42;87.25
55733;BME280;41637;52.364;9.910;2022-12-20T02:54:58;100769.50;;;7.41;87.62
55733;BME280;41637;52.364;9.910;2022-12-20T02:57:41;100761.01;;;7.42;87.43
55733;BME280;41637;52.364;9.910;2022-12-20T03:00:12;100759.39;;;7.43;87.80
55733;BME280;41637;52.364;9.910;2022-12-20T03:02:40;100759.11;;;7.45;87.76
55733;BME280;41637;52.364;9.910;2022-12-20T03:05:27;100746.44;;;7.46;87.69
55733;BME280;41637;52.364;9.910;2022-12-20T03:07:54;100749.64;;;7.48;87.87
55733;BME280;41637;52.364;9.910;2022-12-20T03:10:21;100756.86;;;7.48;88.10
55733;BME280;41637;52.364;9.910;2022-12-20T03:12:48;100766.52;;;7.48;87.90
55733;BME280;41637;52.364;9.910;2022-12-20T03:15:14;100771.00;;;7.49;87.98
55733;BME280;41637;52.364;9.910;2022-12-20T03:17:41;100766.55;;;7.51;87.80
55733;BME280;41637;52.364;9.910;2022-12-20T03:20:08;100764.20;;;7.53;87.77
55733;BME280;41637;52.364;9.910;2022-12-20T03:22:36;100752.05;;;7.55;87.86
55733;BME280;41637;52.364;9.910;2022-12-20T03:25:04;100742.48;;;7.56;87.56
55733;BME280;41637;52.364;9.910;2022-12-20T03:27:30;100744.23;;;7.56;87.79
55733;BME280;41637;52.364;9.910;2022-12-20T03:29:57;100741.65;;;7.57;87.92
55733;BME280;41637;52.364;9.910;2022-12-20T03:32:23;100741.98;;;7.57;87.57
55733;BME280;41637;52.364;9.910;2022-12-20T03:34:50;100735.58;;;7.58;87.95
55733;BME280;41637;52.364;9.910;2022-12-20T03:37:17;100735.03;;;7.58;87.95
55733;BME280;41637;52.364;9.910;2022-12-20T03:39:43;100732.48;;;7.61;88.11
55733;BME280;41637;52.364;9.910;2022-12-20T03:42:11;100735.17;;;7.65;88.20
55733;BME280;41637;52.364;9.910;2022-12-20T03:44:38;100730.29;;;7.68;87.82
55733;BME280;41637;52.364;9.910;2022-12-20T03:47:04;100729.71;;;7.71;87.49
55733;BME280;41637;52.364;9.910;2022-12-20T03:49:31;100736.44;;;7.72;87.67
55733;BME280;41637;52.364;9.910;2022-12-20T03:51:57;100746.29;;;7.74;87.93
55733;BME280;41637;52.364;9.910;2022-12-20T03:54:24;100740.96;;;7.78;88.03
55733;BME280;41637;52.364;9.910;2022-12-20T03:56:51;100730.30;;;7.83;87.27
55733;BME280;41637;52.364;9.910;2022-12-20T03:59:18;100741.02;;;7.86;87.48
55733;BME280;41637;52.364;9.910;2022-12-20T04:01:44;100739.46;;;7.91;87.21
55733;BME280;41637;52.364;9.910;2022-12-20T04:04:12;100742.55;;;7.95;87.12
55733;BME280;41637;52.364;9.910;2022-12-20T04:06:39;100740.95;;;7.99;86.92
55733;BME280;41637;52.364;9.910;2022-12-20T04:09:06;100741.10;;;8.01;86.80
55733;BME280;41637;52.364;9.910;2022-12-20T04:11:32;100731.24;;;8.04;86.69
55733;BME280;41637;52.364;9.910;2022-12-20T04:13:59;100729.96;;;8.07;86.44
55733;BME280;41637;52.364;9.910;2022-12-20T04:16:27;100732.79;;;8.07;86.61
55733;BME280;41637;52.364;9.910;2022-12-20T04:18:54;100734.73;;;8.08;86.15
55733;BME280;41637;52.364;9.910;2022-12-20T04:21:25;100737.64;;;8.09;86.40
55733;BME280;41637;52.364;9.910;2022-12-20T04:23:52;100734.64;;;8.09;86.12
55733;BME280;41637;52.364;9.910;2022-12-20T04:26:20;100744.63;;;8.07;86.26
55733;BME280;41637;52.364;9.910;2022-12-20T04:28:46;100760.42;;;8.08;85.84
55733;BME280;41637;52.364;9.910;2022-12-20T04:31:13;100768.11;;;8.07;85.67
55733;BME280;41637;52.364;9.910;2022-12-20T04:33:48;100767.15;;;8.06;85.64
55733;BME280;41637;52.364;9.910;2022-12-20T04:36:15;100768.97;;;8.07;85.45
55733;BME280;41637;52.364;9.910;2022-12-20T04:38:41;100768.11;;;8.07;85.31
55733;BME280;41637;52.364;9.910;2022-12-20T04:41:08;100767.88;;;8.06;85.19
55733;BME280;41637;52.364;9.910;2022-12-20T04:43:34;100762.55;;;8.05;85.31
55733;BME280;41637;52.364;9.910;2022-12-20T04:46:01;100761.02;;;8.04;85.32
55733;BME280;41637;52.364;9.910;2022-12-20T04:48:27;100767.92;;;8.04;85.15
55733;BME280;41637;52.364;9.910;2022-12-20T04:51:14;100767.41;;;8.05;85.10
55733;BME280;41637;52.364;9.910;2022-12-20T04:53:41;100768.46;;;8.05;84.91
55733;BME280;41637;52.364;9.910;2022-12-20T04:59:08;100777.65;;;8.05;85.11
55733;BME280;41637;52.364;9.910;2022-12-20T05:01:34;100778.56;;;8.05;85.03
55733;BME280;41637;52.364;9.910;2022-12-20T05:04:01;100771.37;;;8.06;85.11
55733;BME280;41637;52.364;9.910;2022-12-20T05:06:28;100775.24;;;8.06;84.83
55733;BME280;41637;52.364;9.910;2022-12-20T05:08:54;100776.17;;;8.06;85.11
55733;BME280;41637;52.364;9.910;2022-12-20T05:11:20;100775.08;;;8.06;84.93
55733;BME280;41637;52.364;9.910;2022-12-20T05:13:47;100771.70;;;8.06;84.73
55733;BME280;41637;52.364;9.910;2022-12-20T05:16:13;100768.27;;;8.07;85.02
55733;BME280;41637;52.364;9.910;2022-12-20T05:18:40;100762.48;;;8.09;84.85
55733;BME280;41637;52.364;9.910;2022-12-20T05:21:14;100769.21;;;8.08;85.07
55733;BME280;41637;52.364;9.910;2022-12-20T05:23:59;100763.05;;;8.06;85.56
55733;BME280;41637;52.364;9.910;2022-12-20T05:26:44;100762.16;;;8.07;85.54
55733;BME280;41637;52.364;9.910;2022-12-20T05:29:10;100755.33;;;8.06;85.66
55733;BME280;41637;52.364;9.910;2022-12-20T05:31:37;100751.06;;;8.07;85.97
55733;BME280;41637;52.364;9.910;2022-12-20T05:34:03;100749.17;;;8.04;85.93
55733;BME280;41637;52.364;9.910;2022-12-20T05:36:30;100744.34;;;8.02;85.89
55733;BME280;41637;52.364;9.910;2022-12-20T05:38:57;100741.10;;;7.99;85.85
55733;BME280;41637;52.364;9.910;2022-12-20T05:41:29;100739.03;;;7.97;86.19
55733;BME280;41637;52.364;9.910;2022-12-20T05:43:56;100736.93;;;7.95;86.28
55733;BME280;41637;52.364;9.910;2022-12-20T05:46:24;100740.77;;;7.94;86.33
55733;BME280;41637;52.364;9.910;2022-12-20T05:48:51;100741.74;;;7.91;86.46
55733;BME280;41637;52.364;9.910;2022-12-20T05:51:18;100742.38;;;7.88;86.75
55733;BME280;41637;52.364;9.910;2022-12-20T05:53:45;100741.21;;;7.86;87.03
55733;BME280;41637;52.364;9.910;2022-12-20T05:56:12;100741.40;;;7.84;87.32
55733;BME280;41637;52.364;9.910;2022-12-20T05:58:38;100745.23;;;7.81;87.61
55733;BME280;41637;52.364;9.910;2022-12-20T06:01:07;100744.23;;;7.79;87.70
55733;BME280;41637;52.364;9.910;2022-12-20T06:03:34;100738.10;;;7.79;87.96
55733;BME280;41637;52.364;9.910;2022-12-20T06:06:02;100739.02;;;7.78;87.83
55733;BME280;41637;52.364;9.910;2022-12-20T06:08:37;100740.40;;;7.79;88.34
55733;BME280;41637;52.364;9.910;2022-12-20T06:11:03;100746.77;;;7.78;88.11
55733;BME280;41637;52.364;9.910;2022-12-20T06:13:30;100739.06;;;7.79;88.35
55733;BME280;41637;52.364;9.910;2022-12-20T06:15:56;100738.66;;;7.80;88.44
55733;BME280;41637;52.364;9.910;2022-12-20T06:18:23;100732.41;;;7.79;88.38
55733;BME280;41637;52.364;9.910;2022-12-20T06:20:50;100736.94;;;7.78;88.23
55733;BME280;41637;52.364;9.910;2022-12-20T06:23:18;100739.74;;;7.78;88.28
55733;BME280;41637;52.364;9.910;2022-12-20T06:25:45;100737.35;;;7.77;88.24
55733;BME280;41637;52.364;9.910;2022-12-20T06:28:12;100735.98;;;7.77;88.19
55733;BME280;41637;52.364;9.910;2022-12-20T06:30:40;100739.20;;;7.76;88.18
55733;BME280;41637;52.364;9.910;2022-12-20T06:33:07;100734.06;;;7.77;88.13
55733;BME280;41637;52.364;9.910;2022-12-20T06:35:33;100734.03;;;7.79;88.39
55733;BME280;41637;52.364;9.910;2022-12-20T06:38:00;100739.19;;;7.80;88.31
55733;BME280;41637;52.364;9.910;2022-12-20T06:40:26;100739.23;;;7.81;88.23
55733;BME280;41637;52.364;9.910;2022-12-20T06:42:53;100736.18;;;7.84;88.04
55733;BME280;41637;52.364;9.910;2022-12-20T06:45:19;100731.67;;;7.85;87.68
55733;BME280;41637;52.364;9.910;2022-12-20T06:47:45;100731.39;;;7.87;87.83
55733;BME280;41637;52.364;9.910;2022-12-20T06:50:12;100729.21;;;7.90;87.90
55733;BME280;41637;52.364;9.910;2022-12-20T06:52:38;100727.17;;;7.91;87.65
55733;BME280;41637;52.364;9.910;2022-12-20T06:55:05;100727.15;;;7.91;87.75
55733;BME280;41637;52.364;9.910;2022-12-20T06:57:32;100737.39;;;7.92;87.63
55733;BME280;41637;52.364;9.910;2022-12-20T06:59:58;100747.70;;;7.93;87.78
55733;BME280;41637;52.364;9.910;2022-12-20T07:02:25;100736.95;;;7.96;87.70
55733;BME280;41637;52.364;9.910;2022-12-20T07:04:53;100733.02;;;8.01;87.83
55733;BME280;41637;52.364;9.910;2022-12-20T07:07:20;100736.27;;;8.02;87.82
55733;BME280;41637;52.364;9.910;2022-12-20T07:09:47;100733.95;;;8.04;88.14
55733;BME280;41637;52.364;9.910;2022-12-20T07:12:13;100726.22;;;8.05;87.89
55733;BME280;41637;52.364;9.910;2022-12-20T07:14:39;100734.06;;;8.06;87.83
55733;BME280;41637;52.364;9.910;2022-12-20T07:17:06;100740.40;;;8.06;88.36
55733;BME280;41637;52.364;9.910;2022-12-20T07:19:33;100742.67;;;8.04;88.30
55733;BME280;41637;52.364;9.910;2022-12-20T07:22:03;100743.65;;;8.03;88.54
55733;BME280;41637;52.364;9.910;2022-12-20T07:24:31;100733.81;;;8.03;88.76
55733;BME280;41637;52.364;9.910;2022-12-20T07:26:57;100731.14;;;8.04;89.20
55733;BME280;41637;52.364;9.910;2022-12-20T07:29:24;100715.79;;;8.04;88.84
55733;BME280;41637;52.364;9.910;2022-12-20T07:31:51;100700.72;;;8.05;89.21
55733;BME280;41637;52.364;9.910;2022-12-20T07:34:18;100713.15;;;8.04;89.31
55733;BME280;41637;52.364;9.910;2022-12-20T07:36:45;100720.05;;;8.02;89.56
55733;BME280;41637;52.364;9.910;2022-12-20T07:39:11;100733.34;;;7.99;90.05
55733;BME280;41637;52.364;9.910;2022-12-20T07:41:38;100729.44;;;7.98;90.73
55733;BME280;41637;52.364;9.910;2022-12-20T07:44:05;100723.02;;;7.97;90.87
55733;BME280;41637;52.364;9.910;2022-12-20T07:46:31;100724.10;;;8.00;90.71
55733;BME280;41637;52.364;9.910;2022-12-20T07:48:58;100728.68;;;8.03;90.62
55733;BME280;41637;52.364;9.910;2022-12-20T07:51:30;100735.75;;;8.07;90.51
55733;BME280;41637;52.364;9.910;2022-12-20T07:54:15;100734.46;;;8.09;90.29
55733;BME280;41637;52.364;9.910;2022-12-20T07:56:46;100732.51;;;8.12;89.93
55733;BME280;41637;52.364;9.910;2022-12-20T07:59:17;100728.88;;;8.12;90.32
55733;BME280;41637;52.364;9.910;2022-12-20T08:01:46;100729.12;;;8.14;90.07
55733;BME280;41637;52.364;9.910;2022-12-20T08:04:17;100723.85;;;8.20;89.78
55733;BME280;41637;52.364;9.910;2022-12-20T08:06:44;100723.63;;;8.24;89.72
55733;BME280;41637;52.364;9.910;2022-12-20T08:09:12;100719.73;;;8.27;89.45
55733;BME280;41637;52.364;9.910;2022-12-20T08:11:42;100719.27;;;8.30;89.36
55733;BME280;41637;52.364;9.910;2022-12-20T08:14:10;100723.80;;;8.32;89.23
55733;BME280;41637;52.364;9.910;2022-12-20T08:16:36;100723.11;;;8.33;89.38
55733;BME280;41637;52.364;9.910;2022-12-20T08:19:03;100716.41;;;8.37;89.24
55733;BME280;41637;52.364;9.910;2022-12-20T08:21:29;100714.55;;;8.38;89.01
55733;BME280;41637;52.364;9.910;2022-12-20T08:23:56;100705.33;;;8.40;88.90
55733;BME280;41637;52.364;9.910;2022-12-20T08:26:22;100703.42;;;8.44;88.99
55733;BME280;41637;52.364;9.910;2022-12-20T08:28:49;100699.91;;;8.45;88.67
55733;BME280;41637;52.364;9.910;2022-12-20T08:31:15;100693.67;;;8.46;88.51
55733;BME280;41637;52.364;9.910;2022-12-20T08:33:42;100691.50;;;8.48;88.68
55733;BME280;41637;52.364;9.910;2022-12-20T08:36:11;100690.55;;;8.50;88.39
55733;BME280;41637;52.364;9.910;2022-12-20T08:38:38;100686.16;;;8.50;88.20
55733;BME280;41637;52.364;9.910;2022-12-20T08:41:13;100684.64;;;8.48;88.35
55733;BME280;41637;52.364;9.910;2022-12-20T08:43:40;100682.83;;;8.45;88.39
55733;BME280;41637;52.364;9.910;2022-12-20T08:46:09;100683.83;;;8.44;88.36
55733;BME280;41637;52.364;9.910;2022-12-20T08:48:35;100686.16;;;8.43;88.43
55733;BME280;41637;52.364;9.910;2022-12-20T08:51:07;100682.05;;;8.44;88.49
55733;BME280;41637;52.364;9.910;2022-12-20T08:53:35;100668.82;;;8.46;88.48
55733;BME280;41637;52.364;9.910;2022-12-20T08:56:10;100666.59;;;8.47;88.16
55733;BME280;41637;52.364;9.910;2022-12-20T08:58:38;100663.21;;;8.50;88.14
55733;BME280;41637;52.364;9.910;2022-12-20T09:01:07;100661.45;;;8.55;88.11
55733;BME280;41637;52.364;9.910;2022-12-20T09:03:35;100669.39;;;8.61;87.75
55733;BME280;41637;52.364;9.910;2022-12-20T09:06:08;100665.13;;;8.64;87.53
55733;BME280;41637;52.364;9.910;2022-12-20T09:08:36;100663.81;;;8.68;87.23
55733;BME280;41637;52.364;9.910;2022-12-20T09:11:09;100666.14;;;8.73;87.29
55733;BME280;41637;52.364;9.910;2022-12-20T09:13:37;100665.84;;;8.76;86.91
55733;BME280;41637;52.364;9.910;2022-12-20T09:16:11;100658.41;;;8.81;86.75
55733;BME280;41637;52.364;9.910;2022-12-20T09:18:38;100663.73;;;8.86;86.62
55733;BME280;41637;52.364;9.910;2022-12-20T09:21:06;100668.27;;;8.89;86.57
55733;BME280;41637;52.364;9.910;2022-12-20T09:23:34;100668.29;;;8.91;86.44
55733;BME280;41637;52.364;9.910;2022-12-20T09:26:06;100670.41;;;8.92;86.17
55733;BME280;41637;52.364;9.910;2022-12-20T09:28:33;100672.86;;;8.97;86.04
55733;BME280;41637;52.364;9.910;2022-12-20T09:31:02;100655.41;;;9.03;85.93
55733;BME280;41637;52.364;9.910;2022-12-20T09:33:30;100666.31;;;9.06;85.74
55733;BME280;41637;52.364;9.910;2022-12-20T09:35:57;100650.80;;;9.09;85.39
55733;BME280;41637;52.364;9.910;2022-12-20T09:38:24;100646.70;;;9.11;85.20
55733;BME280;41637;52.364;9.910;2022-12-20T09:40:57;100635.77;;;9.17;85.32
55733;BME280;41637;52.364;9.910;2022-12-20T09:43:24;100638.73;;;9.21;84.87
55733;BME280;41637;52.364;9.910;2022-12-20T09:45:53;100634.00;;;9.25;84.79
55733;BME280;41637;52.364;9.910;2022-12-20T09:48:28;100641.13;;;9.27;84.64
55733;BME280;41637;52.364;9.910;2022-12-20T09:51:06;100643.17;;;9.26;84.58
55733;BME280;41637;52.364;9.910;2022-12-20T09:54:05;100645.69;;;9.24;84.40
55733;BME280;41637;52.364;9.910;2022-12-20T09:56:40;100632.39;;;9.24;84.39
55733;BME280;41637;52.364;9.910;2022-12-20T09:59:13;100628.98;;;9.23;84.18
55733;BME280;41637;52.364;9.910;2022-12-20T10:01:45;100625.14;;;9.24;84.27
55733;BME280;41637;52.364;9.910;2022-12-20T10:06:54;100620.75;;;9.35;83.67
55733;BME280;41637;52.364;9.910;2022-12-20T10:09:50;100620.68;;;9.43;83.44
55733;BME280;41637;52.364;9.910;2022-12-20T10:15:20;100623.30;;;9.51;82.75
55733;BME280;41637;52.364;9.910;2022-12-20T10:20:59;100618.52;;;9.59;82.30
55733;BME280;41637;52.364;9.910;2022-12-20T10:23:45;100622.66;;;9.65;82.02
55733;BME280;41637;52.364;9.910;2022-12-20T10:26:21;100613.48;;;9.69;81.68
55733;BME280;41637;52.364;9.910;2022-12-20T10:28:48;100606.73;;;9.76;81.37
55733;BME280;41637;52.364;9.910;2022-12-20T10:31:19;100595.55;;;9.86;80.96
55733;BME280;41637;52.364;9.910;2022-12-20T10:33:46;100592.65;;;9.93;80.80
55733;BME280;41637;52.364;9.910;2022-12-20T10:36:29;100584.05;;;10.03;80.54
55733;BME280;41637;52.364;9.910;2022-12-20T10:38:58;100576.19;;;10.07;80.14
55733;BME280;41637;52.364;9.910;2022-12-20T10:41:30;100578.95;;;10.09;79.98
55733;BME280;41637;52.364;9.910;2022-12-20T10:44:01;100578.27;;;10.08;79.92
55733;BME280;41637;52.364;9.910;2022-12-20T10:46:37;100580.91;;;10.09;79.87
55733;BME280;41637;52.364;9.910;2022-12-20T10:51:59;100586.21;;;10.18;79.55
55733;BME280;41637;52.364;9.910;2022-12-20T10:54:37;100578.14;;;10.25;79.45
55733;BME280;41637;52.364;9.910;2022-12-20T10:57:24;100573.21;;;10.32;79.32
55733;BME280;41637;52.364;9.910;2022-12-20T10:59:54;100570.68;;;10.34;78.80
55733;BME280;41637;52.364;9.910;2022-12-20T11:07:37;100561.95;;;10.32;78.47
55733;BME280;41637;52.364;9.910;2022-12-20T11:10:21;100561.14;;;10.33;78.40
55733;BME280;41637;52.364;9.910;2022-12-20T11:13:18;100553.02;;;10.34;78.43
55733;BME280;41637;52.364;9.910;2022-12-20T11:15:49;100547.17;;;10.37;78.37
55733;BME280;41637;52.364;9.910;2022-12-20T11:24:05;100540.13;;;10.40;78.18
55733;BME280;41637;52.364;9.910;2022-12-20T11:27:00;100534.41;;;10.39;78.24
55733;BME280;41637;52.364;9.910;2022-12-20T11:32:29;100538.66;;;10.42;78.08
55733;BME280;41637;52.364;9.910;2022-12-20T11:35:15;100537.63;;;10.44;78.09
55733;BME280;41637;52.364;9.910;2022-12-20T11:40:26;100528.47;;;10.49;77.81
55733;BME280;41637;52.364;9.910;2022-12-20T11:54:27;100507.44;;;10.54;77.71
55733;BME280;41637;52.364;9.910;2022-12-20T11:57:01;100513.33;;;10.56;77.73
55733;BME280;41637;52.364;9.910;2022-12-20T12:02:12;100510.31;;;10.55;77.64
55733;BME280;41637;52.364;9.910;2022-12-20T12:04:53;100509.11;;;10.53;77.72
55733;BME280;41637;52.364;9.910;2022-12-20T12:07:31;100507.12;;;10.52;77.71
55733;BME280;41637;52.364;9.910;2022-12-20T12:10:21;100503.90;;;10.52;77.83
55733;BME280;41637;52.364;9.910;2022-12-20T12:12:57;100503.03;;;10.53;78.03
55733;BME280;41637;52.364;9.910;2022-12-20T12:18:30;100496.77;;;10.50;78.03
55733;BME280;41637;52.364;9.910;2022-12-20T12:26:41;100490.84;;;10.46;78.26
55733;BME280;41637;52.364;9.910;2022-12-20T12:37:00;100471.50;;;10.51;77.81
55733;BME280;41637;52.364;9.910;2022-12-20T12:39:51;100469.67;;;10.53;77.74
55733;BME280;41637;52.364;9.910;2022-12-20T12:42:29;100474.34;;;10.55;77.55
55733;BME280;41637;52.364;9.910;2022-12-20T12:45:28;100463.41;;;10.61;77.41
55733;BME280;41637;52.364;9.910;2022-12-20T12:48:00;100447.67;;;10.69;77.06
55733;BME280;41637;52.364;9.910;2022-12-20T12:50:36;100451.34;;;10.73;76.74
55733;BME280;41637;52.364;9.910;2022-12-20T12:53:07;100440.05;;;10.79;76.47
55733;BME280;41637;52.364;9.910;2022-12-20T12:55:48;100452.56;;;10.81;76.30
55733;BME280;41637;52.364;9.910;2022-12-20T13:09:15;100439.71;;;10.82;76.27
55733;BME280;41637;52.364;9.910;2022-12-20T13:11:42;100436.74;;;10.83;76.38
55733;BME280;41637;52.364;9.910;2022-12-20T13:19:48;100418.64;;;10.81;76.62
55733;BME280;41637;52.364;9.910;2022-12-20T13:27:36;100424.17;;;10.80;76.61
55733;BME280;41637;52.364;9.910;2022-12-20T13:40:41;100434.31;;;12.88;69.15
55733;BME280;41637;52.364;9.910;2022-12-20T13:45:54;100433.80;;;12.42;69.77
55733;BME280;41637;52.364;9.910;2022-12-20T13:48:45;100433.34;;;12.19;70.34
55733;BME280;41637;52.364;9.910;2022-12-20T13:51:17;100439.19;;;11.92;71.15
55733;BME280;41637;52.364;9.910;2022-12-20T13:53:58;100440.79;;;11.74;71.77
55733;BME280;41637;52.364;9.910;2022-12-20T13:58:57;100445.44;;;11.40;73.15
55733;BME280;41637;52.364;9.910;2022-12-20T14:01:24;100448.23;;;11.28;73.50
55733;BME280;41637;52.364;9.910;2022-12-20T14:03:52;100444.66;;;11.16;74.04
55733;BME280;41637;52.364;9.910;2022-12-20T14:06:20;100440.12;;;11.10;74.41
55733;BME280;41637;52.364;9.910;2022-12-20T14:08:52;100440.88;;;11.02;74.71
55733;BME280;41637;52.364;9.910;2022-12-20T14:11:21;100441.08;;;10.92;74.99
55733;BME280;41637;52.364;9.910;2022-12-20T14:14:00;100440.96;;;10.85;75.28
55733;BME280;41637;52.364;9.910;2022-12-20T14:16:29;100437.23;;;10.79;75.61
55733;BME280;41637;52.364;9.910;2022-12-20T14:19:05;100437.36;;;10.72;75.90
55733;BME280;41637;52.364;9.910;2022-12-20T14:21:35;100436.48;;;10.68;76.33
55733;BME280;41637;52.364;9.910;2022-12-20T14:24:03;100435.23;;;10.63;76.54
55733;BME280;41637;52.364;9.910;2022-12-20T14:26:37;100434.27;;;10.58;76.61
55733;BME280;41637;52.364;9.910;2022-12-20T14:29:10;100431.73;;;10.55;77.01
55733;BME280;41637;52.364;9.910;2022-12-20T14:31:40;100421.77;;;10.54;77.04
55733;BME280;41637;52.364;9.910;2022-12-20T14:36:40;100426.35;;;10.53;76.96
55733;BME280;41637;52.364;9.910;2022-12-20T14:39:29;100425.91;;;10.54;77.01
55733;BME280;41637;52.364;9.910;2022-12-20T14:44:32;100421.87;;;10.50;77.07
55733;BME280;41637;52.364;9.910;2022-12-20T14:47:26;100423.52;;;10.51;76.99
55733;BME280;41637;52.364;9.910;2022-12-20T14:49:58;100423.98;;;10.52;77.09
55733;BME280;41637;52.364;9.910;2022-12-20T14:55:04;100411.39;;;10.51;77.14
55733;BME280;41637;52.364;9.910;2022-12-20T15:10:53;100399.92;;;10.51;77.04
55733;BME280;41637;52.364;9.910;2022-12-20T15:13:23;100397.49;;;10.49;77.04
55733;BME280;41637;52.364;9.910;2022-12-20T15:15:50;100399.02;;;10.49;77.12
55733;BME280;41637;52.364;9.910;2022-12-20T15:18:18;100392.97;;;10.47;77.09
55733;BME280;41637;52.364;9.910;2022-12-20T15:20:48;100393.58;;;10.46;77.14
55733;BME280;41637;52.364;9.910;2022-12-20T15:23:18;100390.53;;;10.45;77.08
55733;BME280;41637;52.364;9.910;2022-12-20T15:25:45;100391.08;;;10.43;77.23
55733;BME280;41637;52.364;9.910;2022-12-20T15:28:15;100390.59;;;10.38;77.47
55733;BME280;41637;52.364;9.910;2022-12-20T15:30:41;100392.12;;;10.33;77.78
55733;BME280;41637;52.364;9.910;2022-12-20T15:33:16;100388.79;;;10.30;77.99